sensor_id;sensor_type;location;lat;lon;timestamp;temperature;humidity
69533;DHT22;56729;52.036;5.332;2023-01-24T00:00:47;4.10;99.90
69533;DHT22;56729;52.036;5.332;2023-01-24T00:01:49;4.10;99.90
69533;DHT22;56729;52.036;5.332;2023-01-24T00:02:51;4.10;99.90
69533;DHT22;56729;52.036;5.332;2023-01-24T00:03:53;4.10;99.90
69533;DHT22;56729;52.036;5.332;2023-01-24T00:04:54;4.10;99.90
69533;DHT22;56729;52.036;5.332;2023-01-24T00:05:56;4.10;99.90
69533;DHT22;56729;52.036;5.332;2023-01-24T00:06:58;4.20;99.90
69533;DHT22;56729;52.036;5.332;2023-01-24T00:08:00;4.10;99.90
69533;DHT22;56729;52.036;5.332;2023-01-24T00:09:01;4.10;99.90
69533;DHT22;56729;52.036;5.332;2023-01-24T00:10:04;4.20;99.90
69533;DHT22;56729;52.036;5.332;2023-01-24T00:11:10;4.20;99.90
69533;DHT22;56729;52.036;5.332;2023-01-24T00:12:12;4.20;99.90
69533;DHT22;56729;52.036;5.332;2023-01-24T00:13:15;4.20;99.90
69533;DHT22;56729;52.036;5.332;2023-01-24T00:14:17;4.20;99.90
69533;DHT22;56729;52.036;5.332;2023-01-24T00:15:19;4.20;99.90
69533;DHT22;56729;52.036;5.332;2023-01-24T00:16:21;4.20;99.90
69533;DHT22;56729;52.036;5.332;2023-01-24T00:17:23;4.10;99.90
69533;DHT22;56729;52.036;5.332;2023-01-24T00:18:26;4.10;99.90
69533;DHT22;56729;52.036;5.332;2023-01-24T00:19:28;4.10;99.90
69533;DHT22;56729;52.036;5.332;2023-01-24T00:20:30;4.10;99.90
69533;DHT22;56729;52.036;5.332;2023-01-24T00:21:32;4.10;99.90
69533;DHT22;56729;52.036;5.332;2023-01-24T00:22:34;4.10;99.90
69533;DHT22;56729;52.036;5.332;2023-01-24T00:23:36;4.10;99.90
69533;DHT22;56729;52.036;5.332;2023-01-24T00:24:38;4.10;99.90
69533;DHT22;56729;52.036;5.332;2023-01-24T00:25:40;4.10;99.90
69533;DHT22;56729;52.036;5.332;2023-01-24T00:26:42;4.10;99.90
69533;DHT22;56729;52.036;5.332;2023-01-24T00:27:44;4.10;99.90
69533;DHT22;56729;52.036;5.332;2023-01-24T00:28:49;4.10;99.90
69533;DHT22;56729;52.036;5.332;2023-01-24T00:29:51;4.10;99.90
69533;DHT22;56729;52.036;5.332;2023-01-24T00:30:53;4.10;99.90
69533;DHT22;56729;52.036;5.332;2023-01-24T00:31:55;4.10;99.90
69533;DHT22;56729;52.036;5.332;2023-01-24T00:32:57;4.10;99.90
69533;DHT22;56729;52.036;5.332;2023-01-24T00:34:00;4.10;99.90
69533;DHT22;56729;52.036;5.332;2023-01-24T00:35:04;4.10;99.90
69533;DHT22;56729;52.036;5.332;2023-01-24T00:36:09;4.10;99.90
69533;DHT22;56729;52.036;5.332;2023-01-24T00:37:12;4.10;99.90
69533;DHT22;56729;52.036;5.332;2023-01-24T00:38:15;4.10;99.90
69533;DHT22;56729;52.036;5.332;2023-01-24T00:39:17;4.00;99.90
69533;DHT22;56729;52.036;5.332;2023-01-24T00:40:20;4.10;99.90
69533;DHT22;56729;52.036;5.332;2023-01-24T00:41:23;4.00;99.90
69533;DHT22;56729;52.036;5.332;2023-01-24T00:42:27;4.10;99.90
69533;DHT22;56729;52.036;5.332;2023-01-24T00:43:31;4.00;99.90
69533;DHT22;56729;52.036;5.332;2023-01-24T00:44:34;4.00;99.90
69533;DHT22;56729;52.036;5.332;2023-01-24T00:45:39;4.00;99.90
69533;DHT22;56729;52.036;5.332;2023-01-24T00:46:41;4.00;99.90
69533;DHT22;56729;52.036;5.332;2023-01-24T00:47:43;4.00;99.90
69533;DHT22;56729;52.036;5.332;2023-01-24T00:48:46;4.00;99.90
69533;DHT22;56729;52.036;5.332;2023-01-24T00:49:49;4.00;99.90
69533;DHT22;56729;52.036;5.332;2023-01-24T00:50:54;4.00;99.90
69533;DHT22;56729;52.036;5.332;2023-01-24T00:51:56;4.00;99.90
69533;DHT22;56729;52.036;5.332;2023-01-24T00:53:00;4.00;99.90
69533;DHT22;56729;52.036;5.332;2023-01-24T00:54:03;4.00;99.90
69533;DHT22;56729;52.036;5.332;2023-01-24T00:55:05;4.00;99.90
69533;DHT22;56729;52.036;5.332;2023-01-24T00:56:07;4.00;99.90
69533;DHT22;56729;52.036;5.332;2023-01-24T00:57:08;4.00;99.90
69533;DHT22;56729;52.036;5.332;2023-01-24T00:58:12;4.00;99.90
69533;DHT22;56729;52.036;5.332;2023-01-24T00:59:15;4.00;99.90
69533;DHT22;56729;52.036;5.332;2023-01-24T01:00:19;4.00;99.90
69533;DHT22;56729;52.036;5.332;2023-01-24T01:01:21;4.00;99.90
69533;DHT22;56729;52.036;5.332;2023-01-24T01:02:23;4.00;99.90
69533;DHT22;56729;52.036;5.332;2023-01-24T01:03:27;4.00;99.90
69533;DHT22;56729;52.036;5.332;2023-01-24T01:04:30;4.00;99.90
69533;DHT22;56729;52.036;5.332;2023-01-24T01:05:32;3.90;99.90
69533;DHT22;56729;52.036;5.332;2023-01-24T01:06:34;3.90;99.90
69533;DHT22;56729;52.036;5.332;2023-01-24T01:07:36;4.00;99.90
69533;DHT22;56729;52.036;5.332;2023-01-24T01:08:38;3.90;99.90
69533;DHT22;56729;52.036;5.332;2023-01-24T01:09:40;3.90;99.90
69533;DHT22;56729;52.036;5.332;2023-01-24T01:10:43;3.90;99.90
69533;DHT22;56729;52.036;5.332;2023-01-24T01:11:45;4.00;99.90
69533;DHT22;56729;52.036;5.332;2023-01-24T01:12:47;4.00;99.90
69533;DHT22;56729;52.036;5.332;2023-01-24T01:13:48;4.00;99.90
69533;DHT22;56729;52.036;5.332;2023-01-24T01:14:50;4.00;99.90
69533;DHT22;56729;52.036;5.332;2023-01-24T01:16:26;4.00;99.90
69533;DHT22;56729;52.036;5.332;2023-01-24T01:17:28;4.00;99.90
69533;DHT22;56729;52.036;5.332;2023-01-24T01:18:31;4.00;99.90
69533;DHT22;56729;52.036;5.332;2023-01-24T01:19:35;4.00;99.90
69533;DHT22;56729;52.036;5.332;2023-01-24T01:20:38;4.00;99.90
69533;DHT22;56729;52.036;5.332;2023-01-24T01:21:40;4.00;99.90
69533;DHT22;56729;52.036;5.332;2023-01-24T01:22:46;4.00;99.90
69533;DHT22;56729;52.036;5.332;2023-01-24T01:23:49;4.00;99.90
69533;DHT22;56729;52.036;5.332;2023-01-24T01:24:51;4.00;99.90
69533;DHT22;56729;52.036;5.332;2023-01-24T01:25:58;4.00;99.90
69533;DHT22;56729;52.036;5.332;2023-01-24T01:27:02;4.00;99.90
69533;DHT22;56729;52.036;5.332;2023-01-24T01:28:05;4.00;99.90
69533;DHT22;56729;52.036;5.332;2023-01-24T01:29:08;4.00;99.90
69533;DHT22;56729;52.036;5.332;2023-01-24T01:30:12;4.00;99.90
69533;DHT22;56729;52.036;5.332;2023-01-24T01:31:16;4.10;99.90
69533;DHT22;56729;52.036;5.332;2023-01-24T01:32:19;4.00;99.90
69533;DHT22;56729;52.036;5.332;2023-01-24T01:33:23;4.00;99.90
69533;DHT22;56729;52.036;5.332;2023-01-24T01:34:27;4.10;99.90
69533;DHT22;56729;52.036;5.332;2023-01-24T01:35:30;4.10;99.90
69533;DHT22;56729;52.036;5.332;2023-01-24T01:36:32;4.10;99.90
69533;DHT22;56729;52.036;5.332;2023-01-24T01:37:34;4.10;99.90
69533;DHT22;56729;52.036;5.332;2023-01-24T01:38:36;4.00;99.90
69533;DHT22;56729;52.036;5.332;2023-01-24T01:39:39;4.10;99.90
69533;DHT22;56729;52.036;5.332;2023-01-24T01:40:42;4.10;99.90
69533;DHT22;56729;52.036;5.332;2023-01-24T01:41:45;4.00;99.90
69533;DHT22;56729;52.036;5.332;2023-01-24T01:42:54;4.00;99.90
69533;DHT22;56729;52.036;5.332;2023-01-24T01:43:56;4.00;99.90
69533;DHT22;56729;52.036;5.332;2023-01-24T01:45:35;4.00;99.90
69533;DHT22;56729;52.036;5.332;2023-01-24T01:46:43;4.00;99.90
69533;DHT22;56729;52.036;5.332;2023-01-24T01:47:47;3.90;99.90
69533;DHT22;56729;52.036;5.332;2023-01-24T01:48:51;3.90;99.90
69533;DHT22;56729;52.036;5.332;2023-01-24T01:50:18;3.90;99.90
69533;DHT22;56729;52.036;5.332;2023-01-24T01:51:35;3.90;99.90
69533;DHT22;56729;52.036;5.332;2023-01-24T01:52:44;3.90;99.90
69533;DHT22;56729;52.036;5.332;2023-01-24T01:53:52;3.90;99.90
69533;DHT22;56729;52.036;5.332;2023-01-24T01:55:01;3.90;99.90
69533;DHT22;56729;52.036;5.332;2023-01-24T01:56:13;3.90;99.90
69533;DHT22;56729;52.036;5.332;2023-01-24T01:57:26;3.90;99.90
69533;DHT22;56729;52.036;5.332;2023-01-24T01:58:29;3.90;99.90
69533;DHT22;56729;52.036;5.332;2023-01-24T01:59:35;3.90;99.90
69533;DHT22;56729;52.036;5.332;2023-01-24T02:00:37;3.90;99.90
69533;DHT22;56729;52.036;5.332;2023-01-24T02:01:39;3.90;99.90
69533;DHT22;56729;52.036;5.332;2023-01-24T02:02:48;3.90;99.90
69533;DHT22;56729;52.036;5.332;2023-01-24T02:04:05;3.90;99.90
69533;DHT22;56729;52.036;5.332;2023-01-24T02:05:12;3.90;99.90
69533;DHT22;56729;52.036;5.332;2023-01-24T02:06:40;3.90;99.90
69533;DHT22;56729;52.036;5.332;2023-01-24T02:08:05;3.90;99.90
69533;DHT22;56729;52.036;5.332;2023-01-24T02:09:09;3.90;99.90
69533;DHT22;56729;52.036;5.332;2023-01-24T02:10:13;3.90;99.90
69533;DHT22;56729;52.036;5.332;2023-01-24T02:11:16;3.90;99.90
69533;DHT22;56729;52.036;5.332;2023-01-24T02:12:39;3.90;99.90
69533;DHT22;56729;52.036;5.332;2023-01-24T02:13:43;3.90;99.90
69533;DHT22;56729;52.036;5.332;2023-01-24T02:15:02;4.00;99.90
69533;DHT22;56729;52.036;5.332;2023-01-24T02:16:28;4.00;99.90
69533;DHT22;56729;52.036;5.332;2023-01-24T02:17:30;4.00;99.90
69533;DHT22;56729;52.036;5.332;2023-01-24T02:18:37;4.00;99.90
69533;DHT22;56729;52.036;5.332;2023-01-24T02:21:16;4.00;99.90
69533;DHT22;56729;52.036;5.332;2023-01-24T02:22:28;4.00;99.90
69533;DHT22;56729;52.036;5.332;2023-01-24T02:25:06;4.00;99.90
69533;DHT22;56729;52.036;5.332;2023-01-24T02:26:16;4.00;99.90
69533;DHT22;56729;52.036;5.332;2023-01-24T02:27:20;4.00;99.90
69533;DHT22;56729;52.036;5.332;2023-01-24T02:28:24;4.00;99.90
69533;DHT22;56729;52.036;5.332;2023-01-24T02:29:26;4.00;99.90
69533;DHT22;56729;52.036;5.332;2023-01-24T02:30:28;3.90;99.90
69533;DHT22;56729;52.036;5.332;2023-01-24T02:31:55;3.90;99.90
69533;DHT22;56729;52.036;5.332;2023-01-24T02:32:58;3.90;99.90
69533;DHT22;56729;52.036;5.332;2023-01-24T02:34:00;3.90;99.90
69533;DHT22;56729;52.036;5.332;2023-01-24T02:35:04;3.90;99.90
69533;DHT22;56729;52.036;5.332;2023-01-24T02:37:15;3.90;99.90
69533;DHT22;56729;52.036;5.332;2023-01-24T02:38:24;3.90;99.90
69533;DHT22;56729;52.036;5.332;2023-01-24T02:40:59;3.90;99.90
69533;DHT22;56729;52.036;5.332;2023-01-24T02:42:14;3.90;99.90
69533;DHT22;56729;52.036;5.332;2023-01-24T02:43:22;3.90;99.90
69533;DHT22;56729;52.036;5.332;2023-01-24T02:45:36;3.90;99.90
69533;DHT22;56729;52.036;5.332;2023-01-24T02:46:38;3.90;99.90
69533;DHT22;56729;52.036;5.332;2023-01-24T02:47:45;3.90;99.90
69533;DHT22;56729;52.036;5.332;2023-01-24T02:48:51;3.90;99.90
69533;DHT22;56729;52.036;5.332;2023-01-24T02:49:53;3.90;99.90
69533;DHT22;56729;52.036;5.332;2023-01-24T02:50:55;4.00;99.90
69533;DHT22;56729;52.036;5.332;2023-01-24T02:52:16;3.90;99.90
69533;DHT22;56729;52.036;5.332;2023-01-24T02:53:38;3.90;99.90
69533;DHT22;56729;52.036;5.332;2023-01-24T02:54:41;3.90;99.90
69533;DHT22;56729;52.036;5.332;2023-01-24T02:55:42;3.90;99.90
69533;DHT22;56729;52.036;5.332;2023-01-24T02:57:08;3.90;99.90
69533;DHT22;56729;52.036;5.332;2023-01-24T02:58:29;3.90;99.90
69533;DHT22;56729;52.036;5.332;2023-01-24T02:59:32;3.90;99.90
69533;DHT22;56729;52.036;5.332;2023-01-24T03:00:38;3.90;99.90
69533;DHT22;56729;52.036;5.332;2023-01-24T03:01:41;3.90;99.90
69533;DHT22;56729;52.036;5.332;2023-01-24T03:02:44;3.90;99.90
69533;DHT22;56729;52.036;5.332;2023-01-24T03:05:07;3.90;99.90
69533;DHT22;56729;52.036;5.332;2023-01-24T03:06:11;3.90;99.90
69533;DHT22;56729;52.036;5.332;2023-01-24T03:07:13;3.90;99.90
69533;DHT22;56729;52.036;5.332;2023-01-24T03:08:28;3.90;99.90
69533;DHT22;56729;52.036;5.332;2023-01-24T03:09:33;3.90;99.90
69533;DHT22;56729;52.036;5.332;2023-01-24T03:10:36;3.90;99.90
69533;DHT22;56729;52.036;5.332;2023-01-24T03:11:38;3.90;99.90
69533;DHT22;56729;52.036;5.332;2023-01-24T03:12:40;3.90;99.90
69533;DHT22;56729;52.036;5.332;2023-01-24T03:14:01;3.90;99.90
69533;DHT22;56729;52.036;5.332;2023-01-24T03:15:22;3.90;99.90
69533;DHT22;56729;52.036;5.332;2023-01-24T03:16:43;3.90;99.90
69533;DHT22;56729;52.036;5.332;2023-01-24T03:18:04;3.90;99.90
69533;DHT22;56729;52.036;5.332;2023-01-24T03:19:25;3.90;99.90
69533;DHT22;56729;52.036;5.332;2023-01-24T03:20:48;3.80;99.90
69533;DHT22;56729;52.036;5.332;2023-01-24T03:22:08;3.80;99.90
69533;DHT22;56729;52.036;5.332;2023-01-24T03:23:29;3.80;99.90
69533;DHT22;56729;52.036;5.332;2023-01-24T03:24:49;3.80;99.90
69533;DHT22;56729;52.036;5.332;2023-01-24T03:26:10;3.80;99.90
69533;DHT22;56729;52.036;5.332;2023-01-24T03:27:31;3.80;99.90
69533;DHT22;56729;52.036;5.332;2023-01-24T03:28:57;3.80;99.90
69533;DHT22;56729;52.036;5.332;2023-01-24T03:30:17;3.80;99.90
69533;DHT22;56729;52.036;5.332;2023-01-24T03:31:38;3.80;99.90
69533;DHT22;56729;52.036;5.332;2023-01-24T03:33:02;3.80;99.90
69533;DHT22;56729;52.036;5.332;2023-01-24T03:34:23;3.80;99.90
69533;DHT22;56729;52.036;5.332;2023-01-24T03:35:35;3.80;99.90
69533;DHT22;56729;52.036;5.332;2023-01-24T03:36:37;3.80;99.90
69533;DHT22;56729;52.036;5.332;2023-01-24T03:37:38;3.80;99.90
69533;DHT22;56729;52.036;5.332;2023-01-24T03:39:01;3.80;99.90
69533;DHT22;56729;52.036;5.332;2023-01-24T03:40:21;3.80;99.90
69533;DHT22;56729;52.036;5.332;2023-01-24T03:41:23;3.80;99.90
69533;DHT22;56729;52.036;5.332;2023-01-24T03:42:26;3.80;99.90
69533;DHT22;56729;52.036;5.332;2023-01-24T03:43:29;3.80;99.90
69533;DHT22;56729;52.036;5.332;2023-01-24T03:44:31;3.80;99.90
69533;DHT22;56729;52.036;5.332;2023-01-24T03:45:36;3.80;99.90
69533;DHT22;56729;52.036;5.332;2023-01-24T03:46:39;3.90;99.90
69533;DHT22;56729;52.036;5.332;2023-01-24T03:47:48;3.90;99.90
69533;DHT22;56729;52.036;5.332;2023-01-24T03:48:58;3.90;99.90
69533;DHT22;56729;52.036;5.332;2023-01-24T03:50:06;3.90;99.90
69533;DHT22;56729;52.036;5.332;2023-01-24T03:51:27;3.90;99.90
69533;DHT22;56729;52.036;5.332;2023-01-24T03:52:47;3.90;99.90
69533;DHT22;56729;52.036;5.332;2023-01-24T03:53:49;3.90;99.90
69533;DHT22;56729;52.036;5.332;2023-01-24T03:54:52;3.90;99.90
69533;DHT22;56729;52.036;5.332;2023-01-24T03:55:59;3.90;99.90
69533;DHT22;56729;52.036;5.332;2023-01-24T03:57:06;3.90;99.90
69533;DHT22;56729;52.036;5.332;2023-01-24T03:58:09;3.90;99.90
69533;DHT22;56729;52.036;5.332;2023-01-24T03:59:11;3.90;99.90
69533;DHT22;56729;52.036;5.332;2023-01-24T04:00:15;3.80;99.90
69533;DHT22;56729;52.036;5.332;2023-01-24T04:01:26;3.80;99.90
69533;DHT22;56729;52.036;5.332;2023-01-24T04:02:36;3.80;99.90
69533;DHT22;56729;52.036;5.332;2023-01-24T04:03:37;3.80;99.90
69533;DHT22;56729;52.036;5.332;2023-01-24T04:04:39;3.80;99.90
69533;DHT22;56729;52.036;5.332;2023-01-24T04:06:00;3.80;99.90
69533;DHT22;56729;52.036;5.332;2023-01-24T04:07:03;3.80;99.90
69533;DHT22;56729;52.036;5.332;2023-01-24T04:08:25;3.80;99.90
69533;DHT22;56729;52.036;5.332;2023-01-24T04:09:27;3.80;99.90
69533;DHT22;56729;52.036;5.332;2023-01-24T04:10:30;3.80;99.90
69533;DHT22;56729;52.036;5.332;2023-01-24T04:11:32;3.80;99.90
69533;DHT22;56729;52.036;5.332;2023-01-24T04:12:41;3.80;99.90
69533;DHT22;56729;52.036;5.332;2023-01-24T04:13:43;3.80;99.90
69533;DHT22;56729;52.036;5.332;2023-01-24T04:14:45;3.80;99.90
69533;DHT22;56729;52.036;5.332;2023-01-24T04:15:47;3.80;99.90
69533;DHT22;56729;52.036;5.332;2023-01-24T04:17:03;3.80;99.90
69533;DHT22;56729;52.036;5.332;2023-01-24T04:18:14;3.80;99.90
69533;DHT22;56729;52.036;5.332;2023-01-24T04:19:16;3.80;99.90
69533;DHT22;56729;52.036;5.332;2023-01-24T04:20:17;3.80;99.90
69533;DHT22;56729;52.036;5.332;2023-01-24T04:21:19;3.80;99.90
69533;DHT22;56729;52.036;5.332;2023-01-24T04:22:21;3.80;99.90
69533;DHT22;56729;52.036;5.332;2023-01-24T04:23:23;3.80;99.90
69533;DHT22;56729;52.036;5.332;2023-01-24T04:24:25;3.80;99.90
69533;DHT22;56729;52.036;5.332;2023-01-24T04:25:28;3.80;99.90
69533;DHT22;56729;52.036;5.332;2023-01-24T04:26:30;3.80;99.90
69533;DHT22;56729;52.036;5.332;2023-01-24T04:27:33;3.80;99.90
69533;DHT22;56729;52.036;5.332;2023-01-24T04:28:40;3.80;99.90
69533;DHT22;56729;52.036;5.332;2023-01-24T04:29:42;3.80;99.90
69533;DHT22;56729;52.036;5.332;2023-01-24T04:30:44;3.80;99.90
69533;DHT22;56729;52.036;5.332;2023-01-24T04:32:00;3.80;99.90
69533;DHT22;56729;52.036;5.332;2023-01-24T04:33:09;3.80;99.90
69533;DHT22;56729;52.036;5.332;2023-01-24T04:34:10;3.80;99.90
69533;DHT22;56729;52.036;5.332;2023-01-24T04:35:23;3.80;99.90
69533;DHT22;56729;52.036;5.332;2023-01-24T04:36:28;3.80;99.90
69533;DHT22;56729;52.036;5.332;2023-01-24T04:37:32;3.80;99.90
69533;DHT22;56729;52.036;5.332;2023-01-24T04:38:34;3.70;99.90
69533;DHT22;56729;52.036;5.332;2023-01-24T04:39:40;3.70;99.90
69533;DHT22;56729;52.036;5.332;2023-01-24T04:40:55;3.70;99.90
69533;DHT22;56729;52.036;5.332;2023-01-24T04:41:57;3.70;99.90
69533;DHT22;56729;52.036;5.332;2023-01-24T04:42:59;3.60;99.90
69533;DHT22;56729;52.036;5.332;2023-01-24T04:44:01;3.60;99.90
69533;DHT22;56729;52.036;5.332;2023-01-24T04:45:03;3.60;99.90
69533;DHT22;56729;52.036;5.332;2023-01-24T04:46:05;3.60;99.90
69533;DHT22;56729;52.036;5.332;2023-01-24T04:47:28;3.60;99.90
69533;DHT22;56729;52.036;5.332;2023-01-24T04:48:30;3.60;99.90
69533;DHT22;56729;52.036;5.332;2023-01-24T04:49:32;3.60;99.90
69533;DHT22;56729;52.036;5.332;2023-01-24T04:50:36;3.60;99.90
69533;DHT22;56729;52.036;5.332;2023-01-24T04:51:39;3.60;99.90
69533;DHT22;56729;52.036;5.332;2023-01-24T04:52:49;3.60;99.90
69533;DHT22;56729;52.036;5.332;2023-01-24T04:53:51;3.50;99.90
69533;DHT22;56729;52.036;5.332;2023-01-24T04:54:57;3.50;99.90
69533;DHT22;56729;52.036;5.332;2023-01-24T04:56:00;3.50;99.90
69533;DHT22;56729;52.036;5.332;2023-01-24T04:57:06;3.50;99.90
69533;DHT22;56729;52.036;5.332;2023-01-24T04:58:08;3.50;99.90
69533;DHT22;56729;52.036;5.332;2023-01-24T04:59:12;3.50;99.90
69533;DHT22;56729;52.036;5.332;2023-01-24T05:00:17;3.50;99.90
69533;DHT22;56729;52.036;5.332;2023-01-24T05:01:19;3.50;99.90
69533;DHT22;56729;52.036;5.332;2023-01-24T05:02:30;3.50;99.90
69533;DHT22;56729;52.036;5.332;2023-01-24T05:03:35;3.50;99.90
69533;DHT22;56729;52.036;5.332;2023-01-24T05:04:37;3.50;99.90
69533;DHT22;56729;52.036;5.332;2023-01-24T05:05:39;3.50;99.90
69533;DHT22;56729;52.036;5.332;2023-01-24T05:06:41;3.50;99.90
69533;DHT22;56729;52.036;5.332;2023-01-24T05:07:43;3.50;99.90
69533;DHT22;56729;52.036;5.332;2023-01-24T05:08:49;3.50;99.90
69533;DHT22;56729;52.036;5.332;2023-01-24T05:09:52;3.50;99.90
69533;DHT22;56729;52.036;5.332;2023-01-24T05:11:00;3.50;99.90
69533;DHT22;56729;52.036;5.332;2023-01-24T05:12:06;3.50;99.90
69533;DHT22;56729;52.036;5.332;2023-01-24T05:13:08;3.60;99.90
69533;DHT22;56729;52.036;5.332;2023-01-24T05:14:11;3.60;99.90
69533;DHT22;56729;52.036;5.332;2023-01-24T05:15:13;3.60;99.90
69533;DHT22;56729;52.036;5.332;2023-01-24T05:16:16;3.60;99.90
69533;DHT22;56729;52.036;5.332;2023-01-24T05:17:18;3.60;99.90
69533;DHT22;56729;52.036;5.332;2023-01-24T05:18:21;3.60;99.90
69533;DHT22;56729;52.036;5.332;2023-01-24T05:19:23;3.60;99.90
69533;DHT22;56729;52.036;5.332;2023-01-24T05:20:25;3.60;99.90
69533;DHT22;56729;52.036;5.332;2023-01-24T05:21:27;3.60;99.90
69533;DHT22;56729;52.036;5.332;2023-01-24T05:22:29;3.60;99.90
69533;DHT22;56729;52.036;5.332;2023-01-24T05:23:31;3.50;99.90
69533;DHT22;56729;52.036;5.332;2023-01-24T05:24:33;3.50;99.90
69533;DHT22;56729;52.036;5.332;2023-01-24T05:25:35;3.50;99.90
69533;DHT22;56729;52.036;5.332;2023-01-24T05:26:38;3.50;99.90
69533;DHT22;56729;52.036;5.332;2023-01-24T05:27:40;3.50;99.90
69533;DHT22;56729;52.036;5.332;2023-01-24T05:28:42;3.50;99.90
69533;DHT22;56729;52.036;5.332;2023-01-24T05:29:44;3.50;99.90
69533;DHT22;56729;52.036;5.332;2023-01-24T05:30:47;3.50;99.90
69533;DHT22;56729;52.036;5.332;2023-01-24T05:32:01;3.50;99.90
69533;DHT22;56729;52.036;5.332;2023-01-24T05:33:03;3.50;99.90
69533;DHT22;56729;52.036;5.332;2023-01-24T05:34:06;3.50;99.90
69533;DHT22;56729;52.036;5.332;2023-01-24T05:35:09;3.50;99.90
69533;DHT22;56729;52.036;5.332;2023-01-24T05:36:14;3.50;99.90
69533;DHT22;56729;52.036;5.332;2023-01-24T05:37:18;3.50;99.90
69533;DHT22;56729;52.036;5.332;2023-01-24T05:38:23;3.50;99.90
69533;DHT22;56729;52.036;5.332;2023-01-24T05:39:26;3.50;99.90
69533;DHT22;56729;52.036;5.332;2023-01-24T05:40:28;3.50;99.90
69533;DHT22;56729;52.036;5.332;2023-01-24T05:41:31;3.50;99.90
69533;DHT22;56729;52.036;5.332;2023-01-24T05:42:33;3.50;99.90
69533;DHT22;56729;52.036;5.332;2023-01-24T05:43:36;3.60;99.90
69533;DHT22;56729;52.036;5.332;2023-01-24T05:44:38;3.60;99.90
69533;DHT22;56729;52.036;5.332;2023-01-24T05:45:40;3.60;99.90
69533;DHT22;56729;52.036;5.332;2023-01-24T05:46:42;3.60;99.90
69533;DHT22;56729;52.036;5.332;2023-01-24T05:47:49;3.60;99.90
69533;DHT22;56729;52.036;5.332;2023-01-24T05:48:53;3.60;99.90
69533;DHT22;56729;52.036;5.332;2023-01-24T05:49:56;3.60;99.90
69533;DHT22;56729;52.036;5.332;2023-01-24T05:51:09;3.50;99.90
69533;DHT22;56729;52.036;5.332;2023-01-24T05:52:11;3.50;99.90
69533;DHT22;56729;52.036;5.332;2023-01-24T05:53:21;3.50;99.90
69533;DHT22;56729;52.036;5.332;2023-01-24T05:54:23;3.50;99.90
69533;DHT22;56729;52.036;5.332;2023-01-24T05:55:31;3.50;99.90
69533;DHT22;56729;52.036;5.332;2023-01-24T05:56:33;3.50;99.90
69533;DHT22;56729;52.036;5.332;2023-01-24T05:57:35;3.50;99.90
69533;DHT22;56729;52.036;5.332;2023-01-24T05:59:04;3.50;99.90
69533;DHT22;56729;52.036;5.332;2023-01-24T06:00:07;3.40;99.90
69533;DHT22;56729;52.036;5.332;2023-01-24T06:01:16;3.40;99.90
69533;DHT22;56729;52.036;5.332;2023-01-24T06:02:19;3.40;99.90
69533;DHT22;56729;52.036;5.332;2023-01-24T06:03:21;3.40;99.90
69533;DHT22;56729;52.036;5.332;2023-01-24T06:04:24;3.40;99.90
69533;DHT22;56729;52.036;5.332;2023-01-24T06:05:26;3.40;99.90
69533;DHT22;56729;52.036;5.332;2023-01-24T06:06:29;3.40;99.90
69533;DHT22;56729;52.036;5.332;2023-01-24T06:07:31;3.40;99.90
69533;DHT22;56729;52.036;5.332;2023-01-24T06:08:33;3.40;99.90
69533;DHT22;56729;52.036;5.332;2023-01-24T06:09:35;3.40;99.90
69533;DHT22;56729;52.036;5.332;2023-01-24T06:10:37;3.50;99.90
69533;DHT22;56729;52.036;5.332;2023-01-24T06:11:42;3.50;99.90
69533;DHT22;56729;52.036;5.332;2023-01-24T06:12:49;3.50;99.90
69533;DHT22;56729;52.036;5.332;2023-01-24T06:13:53;3.50;99.90
69533;DHT22;56729;52.036;5.332;2023-01-24T06:14:55;3.50;99.90
69533;DHT22;56729;52.036;5.332;2023-01-24T06:16:10;3.50;99.90
69533;DHT22;56729;52.036;5.332;2023-01-24T06:17:16;3.50;99.90
69533;DHT22;56729;52.036;5.332;2023-01-24T06:18:18;3.50;99.90
69533;DHT22;56729;52.036;5.332;2023-01-24T06:19:23;3.50;99.90
69533;DHT22;56729;52.036;5.332;2023-01-24T06:20:25;3.50;99.90
69533;DHT22;56729;52.036;5.332;2023-01-24T06:21:39;3.50;99.90
69533;DHT22;56729;52.036;5.332;2023-01-24T06:22:52;3.50;99.90
69533;DHT22;56729;52.036;5.332;2023-01-24T06:23:56;3.50;99.90
69533;DHT22;56729;52.036;5.332;2023-01-24T06:25:16;3.50;99.90
69533;DHT22;56729;52.036;5.332;2023-01-24T06:26:21;3.50;99.90
69533;DHT22;56729;52.036;5.332;2023-01-24T06:27:23;3.50;99.90
69533;DHT22;56729;52.036;5.332;2023-01-24T06:28:25;3.40;99.90
69533;DHT22;56729;52.036;5.332;2023-01-24T06:29:27;3.50;99.90
69533;DHT22;56729;52.036;5.332;2023-01-24T06:30:29;3.50;99.90
69533;DHT22;56729;52.036;5.332;2023-01-24T06:31:39;3.50;99.90
69533;DHT22;56729;52.036;5.332;2023-01-24T06:34:25;3.50;99.90
69533;DHT22;56729;52.036;5.332;2023-01-24T06:38:03;3.50;99.90
69533;DHT22;56729;52.036;5.332;2023-01-24T06:39:11;3.50;99.90
69533;DHT22;56729;52.036;5.332;2023-01-24T06:40:19;3.50;99.90
69533;DHT22;56729;52.036;5.332;2023-01-24T06:41:21;3.40;99.90
69533;DHT22;56729;52.036;5.332;2023-01-24T06:42:23;3.40;99.90
69533;DHT22;56729;52.036;5.332;2023-01-24T06:43:27;3.40;99.90
69533;DHT22;56729;52.036;5.332;2023-01-24T06:44:29;3.40;99.90
69533;DHT22;56729;52.036;5.332;2023-01-24T06:45:32;3.40;99.90
69533;DHT22;56729;52.036;5.332;2023-01-24T06:46:34;3.40;99.90
69533;DHT22;56729;52.036;5.332;2023-01-24T06:47:36;3.40;99.90
69533;DHT22;56729;52.036;5.332;2023-01-24T06:48:38;3.30;99.90
69533;DHT22;56729;52.036;5.332;2023-01-24T06:49:40;3.30;99.90
69533;DHT22;56729;52.036;5.332;2023-01-24T06:50:42;3.30;99.90
69533;DHT22;56729;52.036;5.332;2023-01-24T06:51:51;3.30;99.90
69533;DHT22;56729;52.036;5.332;2023-01-24T06:52:53;3.30;99.90
69533;DHT22;56729;52.036;5.332;2023-01-24T06:53:55;3.30;99.90
69533;DHT22;56729;52.036;5.332;2023-01-24T06:54:59;3.30;99.90
69533;DHT22;56729;52.036;5.332;2023-01-24T06:56:01;3.30;99.90
69533;DHT22;56729;52.036;5.332;2023-01-24T06:57:03;3.30;99.90
69533;DHT22;56729;52.036;5.332;2023-01-24T06:58:05;3.30;99.90
69533;DHT22;56729;52.036;5.332;2023-01-24T06:59:07;3.30;99.90
69533;DHT22;56729;52.036;5.332;2023-01-24T07:00:10;3.30;99.90
69533;DHT22;56729;52.036;5.332;2023-01-24T07:01:12;3.30;99.90
69533;DHT22;56729;52.036;5.332;2023-01-24T07:02:14;3.30;99.90
69533;DHT22;56729;52.036;5.332;2023-01-24T07:03:16;3.30;99.90
69533;DHT22;56729;52.036;5.332;2023-01-24T07:04:18;3.30;99.90
69533;DHT22;56729;52.036;5.332;2023-01-24T07:05:20;3.40;99.90
69533;DHT22;56729;52.036;5.332;2023-01-24T07:06:22;3.40;99.90
69533;DHT22;56729;52.036;5.332;2023-01-24T07:07:24;3.40;99.90
69533;DHT22;56729;52.036;5.332;2023-01-24T07:08:26;3.40;99.90
69533;DHT22;56729;52.036;5.332;2023-01-24T07:09:29;3.40;99.90
69533;DHT22;56729;52.036;5.332;2023-01-24T07:10:31;3.40;99.90
69533;DHT22;56729;52.036;5.332;2023-01-24T07:11:34;3.40;99.90
69533;DHT22;56729;52.036;5.332;2023-01-24T07:12:37;3.40;99.90
69533;DHT22;56729;52.036;5.332;2023-01-24T07:13:39;3.40;99.90
69533;DHT22;56729;52.036;5.332;2023-01-24T07:14:42;3.40;99.90